createdAt,value
2022-11-01T00:00:55.000Z,281.96
2022-11-01T00:02:21.000Z,281.96
2022-11-01T00:04:28.000Z,281.96
2022-11-01T00:05:54.000Z,281.9
2022-11-01T00:08:00.000Z,281.84
2022-11-01T00:09:28.000Z,281.9
2022-11-01T00:11:34.000Z,281.84
2022-11-01T00:13:00.000Z,281.9
2022-11-01T00:15:07.000Z,281.84
2022-11-01T00:17:58.000Z,281.84
2022-11-01T00:19:25.000Z,281.9
2022-11-01T00:21:31.000Z,281.96
2022-11-01T00:22:57.000Z,281.96
2022-11-01T00:25:04.000Z,281.96
2022-11-01T00:26:31.000Z,281.96
2022-11-01T00:28:37.000Z,282.02
2022-11-01T00:30:03.000Z,282.09
2022-11-01T00:32:10.000Z,282.15
2022-11-01T00:33:36.000Z,282.15
2022-11-01T00:35:42.000Z,282.21
2022-11-01T00:37:09.000Z,282.21
2022-11-01T00:39:15.000Z,282.21
2022-11-01T00:40:41.000Z,282.21
2022-11-01T00:42:47.000Z,282.21
2022-11-01T00:44:14.000Z,282.21
2022-11-01T00:46:20.000Z,282.21
2022-11-01T00:47:47.000Z,282.21
2022-11-01T00:49:53.000Z,282.21
2022-11-01T00:51:19.000Z,282.21
2022-11-01T00:53:25.000Z,282.21
2022-11-01T00:56:16.000Z,282.21
2022-11-01T00:57:43.000Z,282.21
2022-11-01T00:59:49.000Z,282.15
2022-11-01T01:01:15.000Z,282.21
2022-11-01T01:03:22.000Z,282.21
2022-11-01T01:04:48.000Z,282.21
2022-11-01T01:06:54.000Z,282.27
2022-11-01T01:08:21.000Z,282.21
2022-11-01T01:10:27.000Z,282.27
2022-11-01T01:11:53.000Z,282.27
2022-11-01T01:14:00.000Z,282.34
2022-11-01T01:15:26.000Z,282.34
2022-11-01T01:17:32.000Z,282.34
2022-11-01T01:18:59.000Z,282.34
2022-11-01T01:21:05.000Z,282.34
2022-11-01T01:22:31.000Z,282.34
2022-11-01T01:24:37.000Z,282.4
2022-11-01T01:26:04.000Z,282.34
2022-11-01T01:28:10.000Z,282.34
2022-11-01T01:29:37.000Z,282.4
2022-11-01T01:31:43.000Z,282.4
2022-11-01T01:34:34.000Z,282.4
2022-11-01T01:36:00.000Z,282.4
2022-11-01T01:38:07.000Z,282.4
2022-11-01T01:39:33.000Z,282.46
2022-11-01T01:41:39.000Z,282.46
2022-11-01T01:43:06.000Z,282.46
2022-11-01T01:45:12.000Z,282.46
2022-11-01T01:46:38.000Z,282.46
2022-11-01T01:48:44.000Z,282.4
2022-11-01T01:50:11.000Z,282.46
2022-11-01T01:52:17.000Z,282.52
2022-11-01T01:53:44.000Z,282.52
2022-11-01T01:55:50.000Z,282.46
2022-11-01T01:57:16.000Z,282.46
2022-11-01T01:59:22.000Z,282.59
2022-11-01T02:00:49.000Z,282.59
2022-11-01T02:02:55.000Z,282.52
2022-11-01T02:04:22.000Z,282.59
2022-11-01T02:06:28.000Z,282.52
2022-11-01T02:07:54.000Z,282.59
2022-11-01T02:10:00.000Z,282.59
2022-11-01T02:12:51.000Z,282.59
2022-11-01T02:14:18.000Z,282.59
2022-11-01T02:16:24.000Z,282.65
2022-11-01T02:17:51.000Z,282.65
2022-11-01T02:19:57.000Z,282.65
2022-11-01T02:21:23.000Z,282.71
2022-11-01T02:23:29.000Z,282.65
2022-11-01T02:24:56.000Z,282.65
2022-11-01T02:27:02.000Z,282.65
2022-11-01T02:28:28.000Z,282.71
2022-11-01T02:30:34.000Z,282.71
2022-11-01T02:32:01.000Z,282.71
2022-11-01T02:34:07.000Z,282.65
2022-11-01T02:35:34.000Z,282.71
2022-11-01T02:37:40.000Z,282.65
2022-11-01T02:39:06.000Z,282.65
2022-11-01T02:41:12.000Z,282.65
2022-11-01T02:42:39.000Z,282.65
2022-11-01T02:44:45.000Z,282.71
2022-11-01T02:46:12.000Z,282.71
2022-11-01T02:48:18.000Z,282.71
2022-11-01T02:51:09.000Z,282.77
2022-11-01T02:52:35.000Z,282.77
2022-11-01T02:54:41.000Z,282.9
2022-11-01T02:56:08.000Z,282.84
2022-11-01T02:58:14.000Z,282.77
2022-11-01T02:59:41.000Z,282.84
2022-11-01T03:01:47.000Z,282.84
2022-11-01T03:03:13.000Z,282.9
2022-11-01T03:05:20.000Z,282.9
2022-11-01T03:06:46.000Z,282.96
2022-11-01T03:08:52.000Z,282.96
2022-11-01T03:10:19.000Z,283.02
2022-11-01T03:13:51.000Z,283.02
2022-11-01T03:15:57.000Z,283.02
2022-11-01T03:17:24.000Z,283.15
2022-11-01T03:19:30.000Z,283.15
2022-11-01T03:20:57.000Z,283.09
2022-11-01T03:23:03.000Z,283.09
2022-11-01T03:24:30.000Z,283.02
2022-11-01T03:26:36.000Z,283.09
2022-11-01T03:29:27.000Z,283.09
2022-11-01T03:30:53.000Z,283.15
2022-11-01T03:33:00.000Z,283.15
2022-11-01T03:34:27.000Z,283.15
2022-11-01T03:36:33.000Z,283.27
2022-11-01T03:37:59.000Z,283.27
2022-11-01T03:40:05.000Z,283.27
2022-11-01T03:41:32.000Z,283.34
2022-11-01T03:43:38.000Z,283.4
2022-11-01T03:45:05.000Z,283.4
2022-11-01T03:47:11.000Z,283.71
2022-11-01T03:48:37.000Z,283.65
2022-11-01T03:50:43.000Z,283.84
2022-11-01T03:52:10.000Z,283.96
2022-11-01T03:54:16.000Z,283.96
2022-11-01T03:55:43.000Z,284.09
2022-11-01T03:57:49.000Z,284.02
2022-11-01T03:59:15.000Z,284.4
2022-11-01T04:01:21.000Z,284.21
2022-11-01T04:02:48.000Z,284.27
2022-11-01T04:04:54.000Z,284.59
2022-11-01T04:07:45.000Z,284.34
2022-11-01T04:09:12.000Z,284.34
2022-11-01T04:11:18.000Z,284.4
2022-11-01T04:12:45.000Z,284.65
2022-11-01T04:14:51.000Z,284.46
2022-11-01T04:16:17.000Z,284.52
2022-11-01T04:18:23.000Z,284.84
2022-11-01T04:19:50.000Z,284.96
2022-11-01T04:21:56.000Z,285.02
2022-11-01T04:23:23.000Z,285.02
2022-11-01T04:25:29.000Z,285.15
2022-11-01T04:26:55.000Z,285.27
2022-11-01T04:29:01.000Z,285.34
2022-11-01T04:30:28.000Z,285.4
2022-11-01T04:32:34.000Z,285.52
2022-11-01T04:34:00.000Z,285.52
2022-11-01T04:36:07.000Z,285.4
2022-11-01T04:37:33.000Z,285.52
2022-11-01T04:39:39.000Z,285.59
2022-11-01T04:41:06.000Z,285.46
2022-11-01T04:43:12.000Z,285.71
2022-11-01T04:46:03.000Z,285.65
2022-11-01T04:47:29.000Z,285.59
2022-11-01T04:49:35.000Z,285.46
2022-11-01T04:51:02.000Z,285.34
2022-11-01T04:53:08.000Z,285.27
2022-11-01T04:54:35.000Z,285.27
2022-11-01T04:56:41.000Z,285.27
2022-11-01T04:58:07.000Z,285.52
2022-11-01T05:00:13.000Z,285.52
2022-11-01T05:01:40.000Z,285.52
2022-11-01T05:03:46.000Z,285.52
2022-11-01T05:05:13.000Z,285.4
2022-11-01T05:07:19.000Z,285.52
2022-11-01T05:08:45.000Z,285.46
2022-11-01T05:10:51.000Z,285.34
2022-11-01T05:12:18.000Z,285.4
2022-11-01T05:14:24.000Z,285.4
2022-11-01T05:15:50.000Z,285.4
2022-11-01T05:18:22.000Z,285.46
2022-11-01T05:19:49.000Z,285.46
2022-11-01T05:21:55.000Z,285.52
2022-11-01T05:24:46.000Z,285.46
2022-11-01T05:26:13.000Z,285.46
2022-11-01T05:28:19.000Z,285.59
2022-11-01T05:29:45.000Z,285.59
2022-11-01T05:31:51.000Z,285.65
2022-11-01T05:33:18.000Z,285.71
2022-11-01T05:35:24.000Z,285.77
2022-11-01T05:36:51.000Z,285.71
2022-11-01T05:38:57.000Z,285.71
2022-11-01T05:40:23.000Z,285.71
2022-11-01T05:42:29.000Z,285.77
2022-11-01T05:43:56.000Z,285.77
2022-11-01T05:46:02.000Z,285.77
2022-11-01T05:47:28.000Z,285.71
2022-11-01T05:49:34.000Z,285.71
2022-11-01T05:51:01.000Z,285.71
2022-11-01T05:53:07.000Z,285.77
2022-11-01T05:54:34.000Z,285.77
2022-11-01T05:56:40.000Z,285.71
2022-11-01T05:58:06.000Z,285.65
2022-11-01T06:00:13.000Z,285.65
2022-11-01T06:03:04.000Z,285.71
2022-11-01T06:04:31.000Z,285.77
2022-11-01T06:06:37.000Z,285.71
2022-11-01T06:08:04.000Z,285.65
2022-11-01T06:10:10.000Z,285.59
2022-11-01T06:11:36.000Z,285.71
2022-11-01T06:13:45.000Z,285.77
2022-11-01T06:15:12.000Z,285.77
2022-11-01T06:17:18.000Z,285.84
2022-11-01T06:18:45.000Z,285.84
2022-11-01T06:20:51.000Z,285.84
2022-11-01T06:22:17.000Z,285.84
2022-11-01T06:24:23.000Z,285.9
2022-11-01T06:25:50.000Z,285.96
2022-11-01T06:27:56.000Z,285.9
2022-11-01T06:29:23.000Z,285.9
2022-11-01T06:31:29.000Z,285.9
2022-11-01T06:32:56.000Z,285.9
2022-11-01T06:35:02.000Z,286.02
2022-11-01T06:36:28.000Z,286.02
2022-11-01T06:38:34.000Z,285.96
2022-11-01T06:41:26.000Z,285.96
2022-11-01T06:42:53.000Z,285.96
2022-11-01T06:44:59.000Z,285.96
2022-11-01T06:46:25.000Z,286.02
2022-11-01T06:48:31.000Z,286.02
2022-11-01T06:49:58.000Z,286.09
2022-11-01T06:52:04.000Z,285.96
2022-11-01T06:53:30.000Z,285.96
2022-11-01T06:55:36.000Z,286.02
2022-11-01T06:57:03.000Z,285.96
2022-11-01T06:59:09.000Z,286.02
2022-11-01T07:00:36.000Z,286.02
2022-11-01T07:02:42.000Z,286.02
2022-11-01T07:06:15.000Z,285.96
2022-11-01T07:07:42.000Z,286.09
2022-11-01T07:09:48.000Z,286.02
2022-11-01T07:11:15.000Z,286.09
2022-11-01T07:13:21.000Z,286.09
2022-11-01T07:14:47.000Z,286.15
2022-11-01T07:16:53.000Z,286.09
2022-11-01T07:19:45.000Z,286.21
2022-11-01T07:21:11.000Z,286.21
2022-11-01T07:23:17.000Z,286.21
2022-11-01T07:24:44.000Z,286.21
2022-11-01T07:26:50.000Z,286.15
2022-11-01T07:28:17.000Z,286.15
2022-11-01T07:30:23.000Z,286.09
2022-11-01T07:31:49.000Z,286.15
2022-11-01T07:33:55.000Z,286.27
2022-11-01T07:35:22.000Z,286.27
2022-11-01T07:37:28.000Z,286.34
2022-11-01T07:38:55.000Z,286.34
2022-11-01T07:41:01.000Z,286.4
2022-11-01T07:42:27.000Z,286.59
2022-11-01T07:44:33.000Z,286.52
2022-11-01T07:46:00.000Z,286.59
2022-11-01T07:48:06.000Z,286.59
2022-11-01T07:49:32.000Z,286.65
2022-11-01T07:51:39.000Z,286.71
2022-11-01T07:53:05.000Z,286.71
2022-11-01T07:55:11.000Z,286.71
2022-11-01T07:58:03.000Z,286.71
2022-11-01T07:59:30.000Z,286.77
2022-11-01T08:01:36.000Z,286.71
2022-11-01T08:03:03.000Z,286.84
2022-11-01T08:05:09.000Z,286.84
2022-11-01T08:06:36.000Z,286.96
2022-11-01T08:08:42.000Z,286.77
2022-11-01T08:10:08.000Z,286.9
2022-11-01T08:12:15.000Z,286.9
2022-11-01T08:13:41.000Z,286.84
2022-11-01T08:15:47.000Z,286.84
2022-11-01T08:17:14.000Z,286.9
2022-11-01T08:19:20.000Z,286.9
2022-11-01T08:20:46.000Z,286.96
2022-11-01T08:22:53.000Z,287.02
2022-11-01T08:24:19.000Z,287.09
2022-11-01T08:26:25.000Z,287.09
2022-11-01T08:27:52.000Z,287.15
2022-11-01T08:29:58.000Z,287.15
2022-11-01T08:31:24.000Z,287.15
2022-11-01T08:33:31.000Z,287.21
2022-11-01T08:36:22.000Z,287.27
2022-11-01T08:37:48.000Z,287.4
2022-11-01T08:39:55.000Z,287.34
2022-11-01T08:41:21.000Z,287.34
2022-11-01T08:43:27.000Z,287.34
2022-11-01T08:44:54.000Z,287.4
2022-11-01T08:47:00.000Z,287.4
2022-11-01T08:48:26.000Z,287.4
2022-11-01T08:50:33.000Z,287.46
2022-11-01T08:51:59.000Z,287.46
2022-11-01T08:54:05.000Z,287.52
2022-11-01T08:55:32.000Z,287.52
2022-11-01T08:57:42.000Z,287.52
2022-11-01T08:59:08.000Z,287.52
2022-11-01T09:01:14.000Z,287.65
2022-11-01T09:02:41.000Z,287.71
2022-11-01T09:04:47.000Z,287.71
2022-11-01T09:06:14.000Z,287.71
2022-11-01T09:08:20.000Z,287.77
2022-11-01T09:09:46.000Z,287.77
2022-11-01T09:11:52.000Z,287.77
2022-11-01T09:14:43.000Z,287.77
2022-11-01T09:16:10.000Z,287.77
2022-11-01T09:18:16.000Z,287.77
2022-11-01T09:19:43.000Z,287.84
2022-11-01T09:21:49.000Z,287.9
2022-11-01T09:23:15.000Z,287.96
2022-11-01T09:25:21.000Z,287.96
2022-11-01T09:26:48.000Z,287.96
2022-11-01T09:28:54.000Z,288.02
2022-11-01T09:30:20.000Z,288.09
2022-11-01T09:32:27.000Z,288.09
2022-11-01T09:33:53.000Z,288.09
2022-11-01T09:35:59.000Z,288.09
2022-11-01T09:37:26.000Z,288.09
2022-11-01T09:39:32.000Z,288.15
2022-11-01T09:40:59.000Z,288.15
2022-11-01T09:43:05.000Z,288.21
2022-11-01T09:44:32.000Z,288.15
2022-11-01T09:46:39.000Z,288.15
2022-11-01T09:48:05.000Z,288.15
2022-11-01T09:50:11.000Z,288.15
2022-11-01T09:53:02.000Z,288.09
2022-11-01T09:54:29.000Z,288.09
2022-11-01T09:56:35.000Z,288.09
2022-11-01T09:58:01.000Z,288.09
2022-11-01T10:00:08.000Z,288.09
2022-11-01T10:01:35.000Z,288.09
2022-11-01T10:03:41.000Z,288.09
2022-11-01T10:05:07.000Z,288.15
2022-11-01T10:07:18.000Z,288.21
2022-11-01T10:08:45.000Z,288.21
2022-11-01T10:10:51.000Z,288.27
2022-11-01T10:12:17.000Z,288.27
2022-11-01T10:14:23.000Z,288.34
2022-11-01T10:15:50.000Z,288.34
2022-11-01T10:17:56.000Z,288.4
2022-11-01T10:19:23.000Z,288.4
2022-11-01T10:21:29.000Z,288.34
2022-11-01T10:22:55.000Z,288.34
2022-11-01T10:25:01.000Z,288.27
2022-11-01T10:26:28.000Z,288.34
2022-11-01T10:28:34.000Z,288.34
2022-11-01T10:31:25.000Z,288.4
2022-11-01T10:32:52.000Z,288.4
2022-11-01T10:34:58.000Z,288.46
2022-11-01T10:36:24.000Z,288.59
2022-11-01T10:38:30.000Z,288.65
2022-11-01T10:40:47.000Z,288.59
2022-11-01T10:42:53.000Z,288.59
2022-11-01T10:44:20.000Z,288.52
2022-11-01T10:46:26.000Z,288.4
2022-11-01T10:47:53.000Z,288.27
2022-11-01T10:49:59.000Z,288.21
2022-11-01T10:51:32.000Z,288.21
2022-11-01T10:53:38.000Z,288.15
2022-11-01T10:55:05.000Z,288.21
2022-11-01T10:57:11.000Z,288.15
2022-11-01T10:58:37.000Z,288.15
2022-11-01T11:00:43.000Z,288.09
2022-11-01T11:02:10.000Z,288.09
2022-11-01T11:04:16.000Z,288.02
2022-11-01T11:05:43.000Z,288.02
2022-11-01T11:07:49.000Z,288.09
2022-11-01T11:10:40.000Z,288.15
2022-11-01T11:12:07.000Z,288.09
2022-11-01T11:14:13.000Z,288.09
2022-11-01T11:15:39.000Z,288.09
2022-11-01T11:17:45.000Z,288.02
2022-11-01T11:19:12.000Z,288.02
2022-11-01T11:21:18.000Z,288.15
2022-11-01T11:22:52.000Z,288.27
2022-11-01T11:24:58.000Z,288.4
2022-11-01T11:26:24.000Z,288.34
2022-11-01T11:28:31.000Z,288.46
2022-11-01T11:29:57.000Z,288.52
2022-11-01T11:32:03.000Z,288.59
2022-11-01T11:33:30.000Z,288.65
2022-11-01T11:35:36.000Z,288.59
2022-11-01T11:37:03.000Z,288.59
2022-11-01T11:39:09.000Z,288.59
2022-11-01T11:40:35.000Z,288.65
2022-11-01T11:42:41.000Z,288.65
2022-11-01T11:44:08.000Z,288.59
2022-11-01T11:46:14.000Z,288.59
2022-11-01T11:49:05.000Z,288.65
2022-11-01T11:50:32.000Z,288.65
2022-11-01T11:52:38.000Z,288.65
2022-11-01T11:54:04.000Z,288.65
2022-11-01T11:56:10.000Z,288.59
2022-11-01T11:57:37.000Z,288.65
2022-11-01T12:01:10.000Z,288.59
2022-11-01T12:03:17.000Z,288.59
2022-11-01T12:04:43.000Z,288.52
2022-11-01T12:06:49.000Z,288.52
2022-11-01T12:08:16.000Z,288.46
2022-11-01T12:10:22.000Z,288.46
2022-11-01T12:11:48.000Z,288.52
2022-11-01T12:13:54.000Z,288.52
2022-11-01T12:15:21.000Z,288.52
2022-11-01T12:17:27.000Z,288.65
2022-11-01T12:18:54.000Z,288.59
2022-11-01T12:21:00.000Z,288.71
2022-11-01T12:22:26.000Z,288.71
2022-11-01T12:24:32.000Z,288.84
2022-11-01T12:27:23.000Z,288.84
2022-11-01T12:28:50.000Z,288.71
2022-11-01T12:30:56.000Z,288.65
2022-11-01T12:32:23.000Z,288.77
2022-11-01T12:34:29.000Z,288.71
2022-11-01T12:35:55.000Z,288.71
2022-11-01T12:38:01.000Z,288.71
2022-11-01T12:39:29.000Z,288.71
2022-11-01T12:41:35.000Z,288.71
2022-11-01T12:43:01.000Z,288.71
2022-11-01T12:45:07.000Z,288.71
2022-11-01T12:46:34.000Z,288.84
2022-11-01T12:48:40.000Z,288.77
2022-11-01T12:50:07.000Z,288.77
2022-11-01T12:52:13.000Z,288.77
2022-11-01T12:53:39.000Z,288.84
2022-11-01T12:55:46.000Z,288.84
2022-11-01T12:57:12.000Z,288.84
2022-11-01T12:59:18.000Z,288.9
2022-11-01T13:00:45.000Z,288.9
2022-11-01T13:02:51.000Z,288.77
2022-11-01T13:05:42.000Z,288.71
2022-11-01T13:07:09.000Z,288.65
2022-11-01T13:09:15.000Z,288.71
2022-11-01T13:10:41.000Z,288.77
2022-11-01T13:12:48.000Z,288.77
2022-11-01T13:14:14.000Z,288.71
2022-11-01T13:16:20.000Z,288.71
2022-11-01T13:17:47.000Z,288.77
2022-11-01T13:19:53.000Z,288.71
2022-11-01T13:21:20.000Z,288.77
2022-11-01T13:23:26.000Z,288.77
2022-11-01T13:24:52.000Z,288.77
2022-11-01T13:26:58.000Z,288.65
2022-11-01T13:28:25.000Z,288.65
2022-11-01T13:30:31.000Z,288.59
2022-11-01T13:31:57.000Z,288.65
2022-11-01T13:34:04.000Z,288.71
2022-11-01T13:35:30.000Z,288.65
2022-11-01T13:37:36.000Z,288.59
2022-11-01T13:39:03.000Z,288.59
2022-11-01T13:41:09.000Z,288.52
2022-11-01T13:44:00.000Z,288.46
2022-11-01T13:45:26.000Z,288.52
2022-11-01T13:47:32.000Z,288.46
2022-11-01T13:48:59.000Z,288.46
2022-11-01T13:51:05.000Z,288.46
2022-11-01T13:52:32.000Z,288.46
2022-11-01T13:54:38.000Z,288.46
2022-11-01T13:56:04.000Z,288.46
2022-11-01T13:58:10.000Z,288.4
2022-11-01T13:59:37.000Z,288.46
2022-11-01T14:01:43.000Z,288.4
2022-11-01T14:03:10.000Z,288.34
2022-11-01T14:05:16.000Z,288.34
2022-11-01T14:06:42.000Z,288.27
2022-11-01T14:08:48.000Z,288.27
2022-11-01T14:10:15.000Z,288.27
2022-11-01T14:12:21.000Z,288.27
2022-11-01T14:13:47.000Z,288.27
2022-11-01T14:15:54.000Z,288.27
2022-11-01T14:17:20.000Z,288.27
2022-11-01T14:19:26.000Z,288.27
2022-11-01T14:22:17.000Z,288.27
2022-11-01T14:23:44.000Z,288.27
2022-11-01T14:25:50.000Z,288.27
2022-11-01T14:27:16.000Z,288.27
2022-11-01T14:29:23.000Z,288.15
2022-11-01T14:30:49.000Z,288.21
2022-11-01T14:32:55.000Z,288.15
2022-11-01T14:34:22.000Z,288.15
2022-11-01T14:36:28.000Z,288.15
2022-11-01T14:37:54.000Z,288.15
2022-11-01T14:40:00.000Z,288.09
2022-11-01T14:41:27.000Z,288.09
2022-11-01T14:43:33.000Z,288.09
2022-11-01T14:44:59.000Z,288.02
2022-11-01T14:47:05.000Z,288.02
2022-11-01T14:48:32.000Z,287.96
2022-11-01T14:50:38.000Z,287.96
2022-11-01T14:52:05.000Z,287.9
2022-11-01T14:54:11.000Z,287.84
2022-11-01T14:55:38.000Z,287.9
2022-11-01T14:57:44.000Z,287.84
2022-11-01T15:00:35.000Z,287.77
2022-11-01T15:02:02.000Z,287.77
2022-11-01T15:04:08.000Z,287.71
2022-11-01T15:05:34.000Z,287.59
2022-11-01T15:07:41.000Z,287.59
2022-11-01T15:09:07.000Z,287.59
2022-11-01T15:11:13.000Z,287.52
2022-11-01T15:12:40.000Z,287.52
2022-11-01T15:14:51.000Z,287.34
2022-11-01T15:16:18.000Z,287.27
2022-11-01T15:18:24.000Z,287.21
2022-11-01T15:19:50.000Z,287.21
2022-11-01T15:21:56.000Z,287.09
2022-11-01T15:23:23.000Z,287.09
2022-11-01T15:25:29.000Z,287.02
2022-11-01T15:26:56.000Z,286.96
2022-11-01T15:29:02.000Z,286.9
2022-11-01T15:30:28.000Z,286.77
2022-11-01T15:32:34.000Z,286.71
2022-11-01T15:34:01.000Z,286.65
2022-11-01T15:36:07.000Z,286.59
2022-11-01T15:38:58.000Z,286.52
2022-11-01T15:40:25.000Z,286.46
2022-11-01T15:42:31.000Z,286.4
2022-11-01T15:43:57.000Z,286.34
2022-11-01T15:46:04.000Z,286.27
2022-11-01T15:47:30.000Z,286.27
2022-11-01T15:49:36.000Z,286.21
2022-11-01T15:51:03.000Z,286.15
2022-11-01T15:53:09.000Z,286.09
2022-11-01T15:54:36.000Z,286.02
2022-11-01T15:56:42.000Z,286.09
2022-11-01T15:58:08.000Z,286.02
2022-11-01T16:00:14.000Z,285.96
2022-11-01T16:01:41.000Z,285.96
2022-11-01T16:03:47.000Z,285.9
2022-11-01T16:05:14.000Z,285.9
2022-11-01T16:07:20.000Z,285.84
2022-11-01T16:08:46.000Z,285.77
2022-11-01T16:10:52.000Z,285.71
2022-11-01T16:12:19.000Z,285.65
2022-11-01T16:14:25.000Z,285.52
2022-11-01T16:17:16.000Z,285.52
2022-11-01T16:18:42.000Z,285.46
2022-11-01T16:20:48.000Z,285.46
2022-11-01T16:22:15.000Z,285.34
2022-11-01T16:24:21.000Z,285.27
2022-11-01T16:25:47.000Z,285.27
2022-11-01T16:27:54.000Z,285.27
2022-11-01T16:29:20.000Z,285.27
2022-11-01T16:31:26.000Z,285.09
2022-11-01T16:32:53.000Z,285.09
2022-11-01T16:34:59.000Z,285.02
2022-11-01T16:36:26.000Z,285.09
2022-11-01T16:38:32.000Z,285.09
2022-11-01T16:39:58.000Z,285.09
2022-11-01T16:42:04.000Z,285.02
2022-11-01T16:43:31.000Z,285.02
2022-11-01T16:45:37.000Z,284.96
2022-11-01T16:47:03.000Z,285.02
2022-11-01T16:49:09.000Z,284.96
2022-11-01T16:50:36.000Z,285.02
2022-11-01T16:52:42.000Z,285.09
2022-11-01T16:55:33.000Z,285.02
2022-11-01T16:57:01.000Z,285.02
2022-11-01T16:59:07.000Z,284.96
2022-11-01T17:00:34.000Z,284.96
2022-11-01T17:02:40.000Z,284.84
2022-11-01T17:04:07.000Z,284.77
2022-11-01T17:06:13.000Z,284.77
2022-11-01T17:07:39.000Z,284.84
2022-11-01T17:09:45.000Z,284.9
2022-11-01T17:11:12.000Z,284.9
2022-11-01T17:13:18.000Z,284.9
2022-11-01T17:14:44.000Z,284.96
2022-11-01T17:16:51.000Z,284.9
2022-11-01T17:18:17.000Z,284.84
2022-11-01T17:20:28.000Z,284.84
2022-11-01T17:21:54.000Z,284.77
2022-11-01T17:24:00.000Z,284.71
2022-11-01T17:25:27.000Z,284.59
2022-11-01T17:27:33.000Z,284.59
2022-11-01T17:29:00.000Z,284.52
2022-11-01T17:31:06.000Z,284.46
2022-11-01T17:33:57.000Z,284.34
2022-11-01T17:35:23.000Z,284.27
2022-11-01T17:37:31.000Z,284.21
2022-11-01T17:38:57.000Z,284.15
2022-11-01T17:41:03.000Z,284.09
2022-11-01T17:42:30.000Z,284.02
2022-11-01T17:44:36.000Z,284.02
2022-11-01T17:46:02.000Z,284.15
2022-11-01T17:48:08.000Z,284.02
2022-11-01T17:49:35.000Z,283.96
2022-11-01T17:51:41.000Z,283.9
2022-11-01T17:53:07.000Z,283.77
2022-11-01T17:55:14.000Z,283.9
2022-11-01T17:56:40.000Z,283.96
2022-11-01T17:58:46.000Z,283.96
2022-11-01T18:00:16.000Z,283.9
2022-11-01T18:02:22.000Z,283.9
2022-11-01T18:03:49.000Z,283.96
2022-11-01T18:05:55.000Z,284.02
2022-11-01T18:07:22.000Z,283.96
2022-11-01T18:09:28.000Z,283.96
2022-11-01T18:12:19.000Z,283.96
2022-11-01T18:13:45.000Z,284.02
2022-11-01T18:15:52.000Z,283.9
2022-11-01T18:17:18.000Z,283.9
2022-11-01T18:19:25.000Z,283.9
2022-11-01T18:20:51.000Z,283.9
2022-11-01T18:22:57.000Z,283.77
2022-11-01T18:24:24.000Z,283.84
2022-11-01T18:26:30.000Z,283.9
2022-11-01T18:27:56.000Z,283.84
2022-11-01T18:30:02.000Z,283.84
2022-11-01T18:31:29.000Z,283.77
2022-11-01T18:33:35.000Z,283.71
2022-11-01T18:35:01.000Z,283.65
2022-11-01T18:37:07.000Z,283.59
2022-11-01T18:38:34.000Z,283.59
2022-11-01T18:40:40.000Z,283.65
2022-11-01T18:42:06.000Z,283.52
2022-11-01T18:44:13.000Z,283.46
2022-11-01T18:45:39.000Z,283.46
2022-11-01T18:48:15.000Z,283.34
2022-11-01T18:51:06.000Z,283.52
2022-11-01T18:52:32.000Z,283.46
2022-11-01T18:54:38.000Z,283.46
2022-11-01T18:56:05.000Z,283.59
2022-11-01T18:58:12.000Z,283.59
2022-11-01T18:59:38.000Z,283.52
2022-11-01T19:01:44.000Z,283.46
2022-11-01T19:03:11.000Z,283.4
2022-11-01T19:05:17.000Z,283.4
2022-11-01T19:06:43.000Z,283.4
2022-11-01T19:08:50.000Z,283.52
2022-11-01T19:10:16.000Z,283.59
2022-11-01T19:12:22.000Z,283.59
2022-11-01T19:13:53.000Z,283.71
2022-11-01T19:15:59.000Z,283.77
2022-11-01T19:17:25.000Z,283.77
2022-11-01T19:19:31.000Z,283.71
2022-11-01T19:20:58.000Z,283.59
2022-11-01T19:23:04.000Z,283.65
2022-11-01T19:24:31.000Z,283.52
2022-11-01T19:26:37.000Z,283.59
2022-11-01T19:29:28.000Z,283.52
2022-11-01T19:30:54.000Z,283.52
2022-11-01T19:33:00.000Z,283.46
2022-11-01T19:34:27.000Z,283.52
2022-11-01T19:36:33.000Z,283.52
2022-11-01T19:37:59.000Z,283.46
2022-11-01T19:40:06.000Z,283.52
2022-11-01T19:41:33.000Z,283.52
2022-11-01T19:43:39.000Z,283.46
2022-11-01T19:45:05.000Z,283.46
2022-11-01T19:47:11.000Z,283.46
2022-11-01T19:48:40.000Z,283.4
2022-11-01T19:50:46.000Z,283.34
2022-11-01T19:52:13.000Z,283.27
2022-11-01T19:54:19.000Z,283.21
2022-11-01T19:55:46.000Z,283.21
2022-11-01T19:57:52.000Z,283.15
2022-11-01T19:59:18.000Z,283.27
2022-11-01T20:01:24.000Z,283.34
2022-11-01T20:02:51.000Z,283.21
2022-11-01T20:04:57.000Z,283.34
2022-11-01T20:07:48.000Z,283.15
2022-11-01T20:09:15.000Z,283.21
2022-11-01T20:11:21.000Z,283.15
2022-11-01T20:12:47.000Z,283.21
2022-11-01T20:14:54.000Z,283.15
2022-11-01T20:16:20.000Z,283.15
2022-11-01T20:18:26.000Z,283.34
2022-11-01T20:19:53.000Z,283.34
2022-11-01T20:21:59.000Z,283.21
2022-11-01T20:23:25.000Z,283.15
2022-11-01T20:25:31.000Z,283.09
2022-11-01T20:26:58.000Z,283.09
2022-11-01T20:29:04.000Z,282.96
2022-11-01T20:30:30.000Z,282.9
2022-11-01T20:32:36.000Z,282.9
2022-11-01T20:34:03.000Z,282.84
2022-11-01T20:36:09.000Z,282.84
2022-11-01T20:37:36.000Z,282.84
2022-11-01T20:39:42.000Z,282.77
2022-11-01T20:41:08.000Z,282.77
2022-11-01T20:43:14.000Z,282.71
2022-11-01T20:46:05.000Z,282.71
2022-11-01T20:47:32.000Z,282.71
2022-11-01T20:49:38.000Z,282.77
2022-11-01T20:51:05.000Z,282.77
2022-11-01T20:53:11.000Z,282.65
2022-11-01T20:54:37.000Z,282.71
2022-11-01T20:56:43.000Z,282.77
2022-11-01T20:58:10.000Z,282.59
2022-11-01T21:00:16.000Z,282.65
2022-11-01T21:01:42.000Z,282.59
2022-11-01T21:03:49.000Z,282.65
2022-11-01T21:05:15.000Z,282.59
2022-11-01T21:07:21.000Z,282.52
2022-11-01T21:08:48.000Z,282.52
2022-11-01T21:10:54.000Z,282.46
2022-11-01T21:12:21.000Z,282.46
2022-11-01T21:14:27.000Z,282.4
2022-11-01T21:15:53.000Z,282.46
2022-11-01T21:17:59.000Z,282.34
2022-11-01T21:19:26.000Z,282.27
2022-11-01T21:21:32.000Z,282.27
2022-11-01T21:24:23.000Z,282.15
2022-11-01T21:25:50.000Z,282.21
2022-11-01T21:27:56.000Z,282.09
2022-11-01T21:29:22.000Z,282.09
2022-11-01T21:31:28.000Z,281.96
2022-11-01T21:32:55.000Z,281.9
2022-11-01T21:35:01.000Z,281.96
2022-11-01T21:36:27.000Z,281.96
2022-11-01T21:38:34.000Z,281.96
2022-11-01T21:40:00.000Z,281.96
2022-11-01T21:42:10.000Z,281.9
2022-11-01T21:43:37.000Z,281.9
2022-11-01T21:45:43.000Z,281.84
2022-11-01T21:47:09.000Z,281.84
2022-11-01T21:49:15.000Z,281.84
2022-11-01T21:50:42.000Z,281.84
2022-11-01T21:52:48.000Z,281.84
2022-11-01T21:54:15.000Z,281.84
2022-11-01T21:56:21.000Z,281.77
2022-11-01T21:57:47.000Z,281.77
2022-11-01T21:59:53.000Z,281.77
2022-11-01T22:02:44.000Z,281.65
2022-11-01T22:04:11.000Z,281.71
2022-11-01T22:06:17.000Z,281.65
2022-11-01T22:07:44.000Z,281.65
2022-11-01T22:09:50.000Z,281.59
2022-11-01T22:11:16.000Z,281.52
2022-11-01T22:13:27.000Z,281.46
2022-11-01T22:14:54.000Z,281.46
2022-11-01T22:17:00.000Z,281.4
2022-11-01T22:18:27.000Z,281.4
2022-11-01T22:20:33.000Z,281.34
2022-11-01T22:21:59.000Z,281.34
2022-11-01T22:24:05.000Z,281.34
2022-11-01T22:25:32.000Z,281.34
2022-11-01T22:27:38.000Z,281.15
2022-11-01T22:29:04.000Z,281.15
2022-11-01T22:31:10.000Z,281.15
2022-11-01T22:32:37.000Z,281.09
2022-11-01T22:34:43.000Z,280.96
2022-11-01T22:36:10.000Z,280.9
2022-11-01T22:38:16.000Z,280.84
2022-11-01T22:41:06.000Z,280.71
2022-11-01T22:42:33.000Z,280.77
2022-11-01T22:44:39.000Z,280.71
2022-11-01T22:46:05.000Z,280.65
2022-11-01T22:48:12.000Z,280.65
2022-11-01T22:49:38.000Z,280.65
2022-11-01T22:51:44.000Z,280.65
2022-11-01T22:53:11.000Z,280.59
2022-11-01T22:55:17.000Z,280.52
2022-11-01T22:56:43.000Z,280.46
2022-11-01T22:58:49.000Z,280.52